createdAt,value
2023-08-15T00:01:21.041Z,59.11
2023-08-15T00:03:51.478Z,59.07
2023-08-15T00:06:19.967Z,59.28
2023-08-15T00:08:49.336Z,59.25
2023-08-15T00:11:16.967Z,59.39
2023-08-15T00:13:44.580Z,59.41
2023-08-15T00:16:12.201Z,59.55
2023-08-15T00:18:39.869Z,59.90
2023-08-15T00:21:08.800Z,60.21
2023-08-15T00:23:36.389Z,60.13
2023-08-15T00:26:04.012Z,60.32
2023-08-15T00:28:31.672Z,60.24
2023-08-15T00:30:59.321Z,60.16
2023-08-15T00:33:26.932Z,60.28
2023-08-15T00:35:54.536Z,60.43
2023-08-15T00:38:23.484Z,60.39
2023-08-15T00:40:51.985Z,60.39
2023-08-15T00:43:20.236Z,60.00
2023-08-15T00:45:48.411Z,59.61
2023-08-15T00:48:18.049Z,59.18
2023-08-15T00:50:49.008Z,59.02
2023-08-15T00:53:16.699Z,58.95
2023-08-15T00:55:47.296Z,58.92
2023-08-15T00:58:15.895Z,59.01
2023-08-15T01:00:44.124Z,59.26
2023-08-15T01:03:12.070Z,59.37
2023-08-15T01:05:41.264Z,59.67
2023-08-15T01:08:08.912Z,59.82
2023-08-15T01:10:36.704Z,59.34
2023-08-15T01:13:14.481Z,59.39
2023-08-15T01:15:47.410Z,59.40
2023-08-15T01:18:19.090Z,59.13
2023-08-15T01:20:48.876Z,59.09
2023-08-15T01:23:21.648Z,58.50
2023-08-15T01:25:51.604Z,58.43
2023-08-15T01:28:19.168Z,58.21
2023-08-15T01:30:54.678Z,58.41
2023-08-15T01:33:28.370Z,57.88
2023-08-15T01:36:03.379Z,58.09
2023-08-15T01:38:40.510Z,57.69
2023-08-15T01:41:11.275Z,58.02
2023-08-15T01:43:40.836Z,58.00
2023-08-15T01:46:09.745Z,57.89
2023-08-15T01:48:40.672Z,57.71
2023-08-15T01:51:08.389Z,57.68
2023-08-15T01:53:36.485Z,57.56
2023-08-15T01:56:04.215Z,58.05
2023-08-15T01:58:33.199Z,58.30
2023-08-15T02:01:03.119Z,58.26
2023-08-15T02:03:30.815Z,58.51
2023-08-15T02:05:58.624Z,58.65
2023-08-15T02:08:26.709Z,58.73
2023-08-15T02:10:54.428Z,59.04
2023-08-15T02:13:22.075Z,58.65
2023-08-15T02:15:51.776Z,58.34
2023-08-15T02:18:19.472Z,58.04
2023-08-15T02:20:47.098Z,58.21
2023-08-15T02:23:14.690Z,58.09
2023-08-15T02:25:43.993Z,57.74
2023-08-15T02:28:11.646Z,57.60
2023-08-15T02:30:39.306Z,57.76
2023-08-15T02:33:08.965Z,57.52
2023-08-15T02:35:40.566Z,57.59
2023-08-15T02:38:08.647Z,57.68
2023-08-15T02:40:36.239Z,58.10
2023-08-15T02:43:03.849Z,58.25
2023-08-15T02:45:32.303Z,59.09
2023-08-15T02:47:59.993Z,58.28
2023-08-15T02:50:29.498Z,58.02
2023-08-15T02:52:57.090Z,58.23
2023-08-15T02:55:24.694Z,58.78
2023-08-15T02:57:52.262Z,59.21
2023-08-15T03:00:19.824Z,59.45
2023-08-15T03:02:47.487Z,59.55
2023-08-15T03:05:15.193Z,59.29
2023-08-15T03:07:44.131Z,59.00
2023-08-15T03:10:11.728Z,59.28
2023-08-15T03:12:39.314Z,59.18
2023-08-15T03:15:07.657Z,58.80
2023-08-15T03:17:35.765Z,59.00
2023-08-15T03:20:05.665Z,59.07
2023-08-15T03:22:33.313Z,59.21
2023-08-15T03:25:02.240Z,58.92
2023-08-15T03:27:29.847Z,58.91
2023-08-15T03:29:57.443Z,58.86
2023-08-15T03:32:25.157Z,58.90
2023-08-15T03:34:53.195Z,58.43
2023-08-15T03:37:20.970Z,58.28
2023-08-15T03:39:48.708Z,58.37
2023-08-15T03:42:17.640Z,58.23
2023-08-15T03:44:45.188Z,58.41
2023-08-15T03:47:12.774Z,58.80
2023-08-15T03:49:40.312Z,58.74
2023-08-15T03:52:08.016Z,58.90
2023-08-15T03:54:35.615Z,58.93
2023-08-15T03:57:03.200Z,59.18
2023-08-15T03:59:32.132Z,59.20
2023-08-15T04:01:59.737Z,59.21
2023-08-15T04:04:27.374Z,59.34
2023-08-15T04:06:55.052Z,59.70
2023-08-15T04:09:22.640Z,60.16
2023-08-15T04:11:50.355Z,60.46
2023-08-15T04:14:18.080Z,60.58
2023-08-15T04:16:49.074Z,60.58
2023-08-15T04:19:17.201Z,60.78
2023-08-15T04:21:44.777Z,60.96
2023-08-15T04:24:12.409Z,61.05
2023-08-15T04:26:39.976Z,61.23
2023-08-15T04:29:07.543Z,61.03
2023-08-15T04:31:35.328Z,61.06
2023-08-15T04:34:06.019Z,61.10
2023-08-15T04:36:33.590Z,61.16
2023-08-15T04:39:01.191Z,61.22
2023-08-15T04:41:28.761Z,61.17
2023-08-15T04:43:56.315Z,60.80
2023-08-15T04:46:24.223Z,60.86
2023-08-15T04:48:51.863Z,60.90
2023-08-15T04:51:20.832Z,60.43
2023-08-15T04:53:48.483Z,60.00
2023-08-15T04:56:16.116Z,60.33
2023-08-15T04:58:43.686Z,60.72
2023-08-15T05:01:11.368Z,61.58
2023-08-15T05:03:38.936Z,62.01
2023-08-15T05:06:06.568Z,61.47
2023-08-15T05:08:35.668Z,61.05
2023-08-15T05:11:03.345Z,61.03
2023-08-15T05:13:31.020Z,60.52
2023-08-15T05:15:58.645Z,60.50
2023-08-15T05:18:26.360Z,60.09
2023-08-15T05:20:54.096Z,60.25
2023-08-15T05:23:22.121Z,60.54
2023-08-15T05:25:51.447Z,60.06
2023-08-15T05:28:19.101Z,59.92
2023-08-15T05:30:46.745Z,59.78
2023-08-15T05:33:14.365Z,59.67
2023-08-15T05:35:41.972Z,59.58
2023-08-15T05:38:09.703Z,59.78
2023-08-15T05:40:37.587Z,58.88
2023-08-15T05:43:06.845Z,58.51
2023-08-15T05:45:34.853Z,58.90
2023-08-15T05:48:02.427Z,60.30
2023-08-15T05:50:30.040Z,61.17
2023-08-15T05:52:57.618Z,60.95
2023-08-15T05:55:25.296Z,60.51
2023-08-15T05:57:53.450Z,60.00
2023-08-15T06:00:23.566Z,60.04
2023-08-15T06:02:51.199Z,59.28
2023-08-15T06:05:18.990Z,58.54
2023-08-15T06:07:46.588Z,57.97
2023-08-15T06:10:14.993Z,57.73
2023-08-15T06:12:42.666Z,57.04
2023-08-15T06:15:10.859Z,55.66
2023-08-15T06:17:40.195Z,56.13
2023-08-15T06:20:08.771Z,57.73
2023-08-15T06:22:36.480Z,57.78
2023-08-15T06:25:04.243Z,58.04
2023-08-15T06:27:31.851Z,58.42
2023-08-15T06:29:59.471Z,57.72
2023-08-15T06:32:28.090Z,56.87
2023-08-15T06:34:57.168Z,56.02
2023-08-15T06:37:25.202Z,55.82
2023-08-15T06:39:52.837Z,58.41
2023-08-15T06:42:20.453Z,60.01
2023-08-15T06:44:48.092Z,59.69
2023-08-15T06:47:15.710Z,58.92
2023-08-15T06:49:43.385Z,56.73
2023-08-15T06:52:12.303Z,56.89
2023-08-15T06:54:39.869Z,56.27
2023-08-15T06:57:08.445Z,56.71
2023-08-15T06:59:37.057Z,57.53
2023-08-15T07:02:06.965Z,54.52
2023-08-15T07:04:37.816Z,54.76
2023-08-15T07:07:05.460Z,54.20
2023-08-15T07:09:36.757Z,58.33
2023-08-15T07:12:06.130Z,58.02
2023-08-15T07:14:34.055Z,58.01
2023-08-15T07:17:02.393Z,58.19
2023-08-15T07:19:30.083Z,57.44
2023-08-15T07:21:57.694Z,57.19
2023-08-15T07:24:25.747Z,57.80
2023-08-15T07:26:54.803Z,57.69
2023-08-15T07:29:22.376Z,57.62
2023-08-15T07:31:50.047Z,57.30
2023-08-15T07:34:17.945Z,56.76
2023-08-15T07:36:45.559Z,56.85
2023-08-15T07:39:13.159Z,52.91
2023-08-15T07:41:42.768Z,53.53
2023-08-15T07:44:12.563Z,54.22
2023-08-15T07:46:40.165Z,55.05
2023-08-15T07:49:07.790Z,53.80
2023-08-15T07:51:35.329Z,57.04
2023-08-15T07:54:03.137Z,58.19
2023-08-15T07:56:31.287Z,57.38
2023-08-15T07:58:59.095Z,56.57
2023-08-15T08:01:29.563Z,56.39
2023-08-15T08:03:57.662Z,55.76
2023-08-15T08:08:55.997Z,54.80
2023-08-15T08:11:23.659Z,54.07
2023-08-15T08:13:51.277Z,54.22
2023-08-15T08:16:19.366Z,54.19
2023-08-15T08:18:48.546Z,53.71
2023-08-15T08:21:16.148Z,52.64
2023-08-15T08:23:43.772Z,52.40
2023-08-15T08:26:11.426Z,51.99
2023-08-15T08:28:38.998Z,51.56
2023-08-15T08:31:06.658Z,50.24
2023-08-15T08:33:34.299Z,50.47
2023-08-15T08:36:03.242Z,50.46
2023-08-15T08:38:30.959Z,49.98
2023-08-15T08:40:58.600Z,49.00
2023-08-15T08:43:26.745Z,48.20
2023-08-15T08:45:59.579Z,48.03
2023-08-15T08:48:27.222Z,47.49
2023-08-15T08:50:55.822Z,47.64
2023-08-15T08:53:24.946Z,48.01
2023-08-15T08:55:53.029Z,48.43
2023-08-15T08:58:20.741Z,47.60
2023-08-15T09:00:50.501Z,47.21
2023-08-15T09:03:19.197Z,46.08
2023-08-15T09:05:46.902Z,45.68
2023-08-15T09:08:15.317Z,45.80
2023-08-15T09:10:45.595Z,44.97
2023-08-15T09:13:13.259Z,45.22
2023-08-15T09:15:42.178Z,44.48
2023-08-15T09:18:09.840Z,44.68
2023-08-15T09:20:46.672Z,44.82
2023-08-15T09:23:14.271Z,44.63
2023-08-15T09:25:42.133Z,44.30
2023-08-15T09:28:11.278Z,43.16
2023-08-15T09:30:39.165Z,42.81
2023-08-15T09:33:07.057Z,42.24
2023-08-15T09:35:37.455Z,42.23
2023-08-15T09:38:07.426Z,42.29
2023-08-15T09:40:36.769Z,41.88
2023-08-15T09:43:04.917Z,40.71
2023-08-15T09:45:34.054Z,40.83
2023-08-15T09:48:02.552Z,41.58
2023-08-15T09:50:31.884Z,40.45
2023-08-15T09:53:01.556Z,40.00
2023-08-15T09:55:30.980Z,40.27
2023-08-15T09:57:58.589Z,39.62
2023-08-15T10:00:26.285Z,39.64
2023-08-15T10:03:01.621Z,40.48
2023-08-15T10:05:33.522Z,39.48
2023-08-15T10:08:01.756Z,39.27
2023-08-15T10:10:31.961Z,39.75
2023-08-15T10:13:00.085Z,37.29
2023-08-15T10:15:31.452Z,37.50
2023-08-15T10:18:00.742Z,37.23
2023-08-15T10:20:35.619Z,36.95
2023-08-15T10:23:03.425Z,37.09
2023-08-15T10:25:36.658Z,37.35
2023-08-15T10:28:10.338Z,37.65
2023-08-15T10:30:44.410Z,38.31
2023-08-15T10:33:20.794Z,39.06
2023-08-15T10:36:06.417Z,38.94
2023-08-15T10:38:36.413Z,38.99
2023-08-15T10:41:05.717Z,39.54
2023-08-15T10:43:35.072Z,38.61
2023-08-15T10:46:05.447Z,38.30
2023-08-15T10:49:00.220Z,38.50
2023-08-15T10:51:32.294Z,38.28
2023-08-15T10:54:01.938Z,37.20
2023-08-15T10:56:31.091Z,38.13
2023-08-15T10:58:59.462Z,37.52
2023-08-15T11:01:28.588Z,38.50
2023-08-15T11:03:59.200Z,37.96
2023-08-15T11:06:26.906Z,39.95
2023-08-15T11:08:57.425Z,40.05
2023-08-15T11:11:25.626Z,39.91
2023-08-15T11:13:54.451Z,40.38
2023-08-15T11:16:23.901Z,37.20
2023-08-15T11:18:51.914Z,36.88
2023-08-15T11:21:21.064Z,37.21
2023-08-15T11:23:50.608Z,36.22
2023-08-15T11:26:19.342Z,37.93
2023-08-15T11:28:47.079Z,37.49
2023-08-15T11:31:22.774Z,36.68
2023-08-15T11:33:52.301Z,36.48
2023-08-15T11:36:23.291Z,35.57
2023-08-15T11:38:50.900Z,36.60
2023-08-15T11:41:18.860Z,36.09
2023-08-15T11:43:46.863Z,36.35
2023-08-15T11:46:14.537Z,36.08
2023-08-15T11:48:45.746Z,35.22
2023-08-15T11:51:19.629Z,36.97
2023-08-15T11:53:52.298Z,35.73
2023-08-15T11:56:20.637Z,33.37
2023-08-15T11:58:48.441Z,33.75
2023-08-15T12:01:16.668Z,33.53
2023-08-15T12:03:44.388Z,33.14
2023-08-15T12:06:15.174Z,32.98
2023-08-15T12:08:46.791Z,33.60
2023-08-15T12:11:21.342Z,33.67
2023-08-15T12:13:49.937Z,31.06
2023-08-15T12:16:20.659Z,29.58
2023-08-15T12:18:48.588Z,29.10
2023-08-15T12:21:16.250Z,29.78
2023-08-15T12:23:44.202Z,28.77
2023-08-15T12:26:11.840Z,28.11
2023-08-15T12:28:40.783Z,29.30
2023-08-15T12:31:08.456Z,29.18
2023-08-15T12:33:47.172Z,29.74
2023-08-15T12:36:16.037Z,29.45
2023-08-15T12:38:44.389Z,28.78
2023-08-15T12:41:14.478Z,28.53
2023-08-15T12:43:44.301Z,28.66
2023-08-15T12:46:12.349Z,28.79
2023-08-15T12:48:40.142Z,28.46
2023-08-15T12:51:07.752Z,28.68
2023-08-15T12:53:35.306Z,27.39
2023-08-15T12:56:02.915Z,27.60
2023-08-15T12:58:30.629Z,28.41
2023-08-15T13:01:01.796Z,28.53
2023-08-15T13:03:31.367Z,28.26
2023-08-15T13:05:59.214Z,27.83
2023-08-15T13:08:26.833Z,28.10
2023-08-15T13:10:54.546Z,26.84
2023-08-15T13:13:22.224Z,26.03
2023-08-15T13:15:49.817Z,25.66
2023-08-15T13:18:18.817Z,25.48
2023-08-15T13:20:46.686Z,24.86
2023-08-15T13:23:14.351Z,24.99
2023-08-15T13:25:41.949Z,23.38
2023-08-15T13:28:09.636Z,22.97
2023-08-15T13:30:37.536Z,22.54
2023-08-15T13:33:05.587Z,22.49
2023-08-15T13:35:34.642Z,22.47
2023-08-15T13:38:02.537Z,22.14
2023-08-15T13:40:30.627Z,21.62
2023-08-15T13:43:00.194Z,22.11
2023-08-15T13:45:27.912Z,22.10
2023-08-15T13:47:55.610Z,22.07
2023-08-15T13:50:23.339Z,21.56
2023-08-15T13:52:52.293Z,21.78
2023-08-15T13:55:19.882Z,21.84
2023-08-15T13:57:47.469Z,21.53
2023-08-15T14:00:15.788Z,20.92
2023-08-15T14:02:44.367Z,20.24
2023-08-15T14:05:12.076Z,20.73
2023-08-15T14:07:39.974Z,22.49
2023-08-15T14:10:10.245Z,21.35
2023-08-15T14:12:38.093Z,21.11
2023-08-15T14:15:07.938Z,20.55
2023-08-15T14:17:37.219Z,20.82
2023-08-15T14:20:05.645Z,20.40
2023-08-15T14:22:33.242Z,20.08
2023-08-15T14:25:00.932Z,19.98
2023-08-15T14:27:29.891Z,20.46
2023-08-15T14:29:57.527Z,20.60
2023-08-15T14:32:25.569Z,19.49
2023-08-15T14:34:54.742Z,19.83
2023-08-15T14:37:22.717Z,19.70
2023-08-15T14:39:50.274Z,19.70
2023-08-15T14:42:18.618Z,19.38
2023-08-15T14:44:47.769Z,19.51
2023-08-15T14:47:16.549Z,19.18
2023-08-15T14:49:44.196Z,19.46
2023-08-15T14:52:11.794Z,18.97
2023-08-15T14:54:39.626Z,19.11
2023-08-15T14:57:07.239Z,20.12
2023-08-15T14:59:34.992Z,19.82
2023-08-15T15:02:04.309Z,20.31
2023-08-15T15:04:32.479Z,20.31
2023-08-15T15:07:01.570Z,19.31
2023-08-15T15:09:29.186Z,19.74
2023-08-15T15:11:56.887Z,19.44
2023-08-15T15:14:24.481Z,19.58
2023-08-15T15:16:52.128Z,19.75
2023-08-15T15:19:21.160Z,20.68
2023-08-15T15:21:50.911Z,20.57
2023-08-15T15:24:18.578Z,20.13
2023-08-15T15:26:46.313Z,20.14
2023-08-15T15:29:13.963Z,20.36
2023-08-15T15:31:41.611Z,20.78
2023-08-15T15:34:09.282Z,21.63
2023-08-15T15:36:38.209Z,21.83
2023-08-15T15:39:06.050Z,21.45
2023-08-15T15:41:33.705Z,21.38
2023-08-15T15:44:01.280Z,21.50
2023-08-15T15:46:32.678Z,22.13
2023-08-15T15:49:06.077Z,22.45
2023-08-15T15:51:34.548Z,22.87
2023-08-15T15:54:03.879Z,22.78
2023-08-15T15:56:31.855Z,22.70
2023-08-15T15:58:59.496Z,22.46
2023-08-15T16:01:27.210Z,22.90
2023-08-15T16:03:55.006Z,22.98
2023-08-15T16:06:22.661Z,23.07
2023-08-15T16:08:50.213Z,23.13
2023-08-15T16:11:19.179Z,22.87
2023-08-15T16:13:46.774Z,24.07
2023-08-15T16:16:14.403Z,23.39
2023-08-15T16:18:41.989Z,24.52
2023-08-15T16:21:09.689Z,24.35
2023-08-15T16:23:37.446Z,24.80
2023-08-15T16:26:05.043Z,24.31
2023-08-15T16:28:33.987Z,24.01
2023-08-15T16:31:01.609Z,23.98
2023-08-15T16:33:29.897Z,24.04
2023-08-15T16:35:57.608Z,24.51
2023-08-15T16:38:25.382Z,24.48
2023-08-15T16:40:52.955Z,24.50
2023-08-15T16:43:21.366Z,24.22
2023-08-15T16:45:50.616Z,24.37
2023-08-15T16:48:18.347Z,24.78
2023-08-15T16:50:46.106Z,24.91
2023-08-15T16:53:13.714Z,25.08
2023-08-15T16:55:41.374Z,24.66
2023-08-15T16:58:08.986Z,25.78
2023-08-15T17:00:36.629Z,26.90
2023-08-15T17:03:06.593Z,26.65
2023-08-15T17:05:34.336Z,26.16
2023-08-15T17:08:02.031Z,26.21
2023-08-15T17:10:29.853Z,26.91
2023-08-15T17:12:57.418Z,27.32
2023-08-15T17:15:25.388Z,27.42
2023-08-15T17:17:53.007Z,28.01
2023-08-15T17:20:22.037Z,27.89
2023-08-15T17:22:49.800Z,28.38
2023-08-15T17:25:17.676Z,28.65
2023-08-15T17:27:45.350Z,29.33
2023-08-15T17:30:14.856Z,30.93
2023-08-15T17:32:42.460Z,31.50
2023-08-15T17:35:10.407Z,31.38
2023-08-15T17:37:39.383Z,32.08
2023-08-15T17:40:08.119Z,32.42
2023-08-15T17:42:35.703Z,32.65
2023-08-15T17:45:03.452Z,32.94
2023-08-15T17:47:31.053Z,33.50
2023-08-15T17:49:58.679Z,33.41
2023-08-15T17:52:26.255Z,34.58
2023-08-15T17:54:55.190Z,35.01
2023-08-15T17:57:22.776Z,35.84
2023-08-15T17:59:50.373Z,36.24
2023-08-15T18:02:18.052Z,36.98
2023-08-15T18:04:45.675Z,37.21
2023-08-15T18:07:13.566Z,37.77
2023-08-15T18:09:41.284Z,37.11
2023-08-15T18:12:10.535Z,37.38
2023-08-15T18:14:41.532Z,37.10
2023-08-15T18:17:09.074Z,37.54
2023-08-15T18:19:36.716Z,37.63
2023-08-15T18:22:05.711Z,36.88
2023-08-15T18:24:34.544Z,37.16
2023-08-15T18:27:03.066Z,37.07
2023-08-15T18:29:32.056Z,38.10
2023-08-15T18:31:59.766Z,37.62
2023-08-15T18:34:27.516Z,38.15
2023-08-15T18:36:55.149Z,37.69
2023-08-15T18:39:23.261Z,37.82
2023-08-15T18:41:50.883Z,38.08
2023-08-15T18:44:18.517Z,37.80
2023-08-15T18:46:50.988Z,36.88
2023-08-15T18:49:19.798Z,37.01
2023-08-15T18:51:47.495Z,37.83
2023-08-15T18:54:15.080Z,38.59
2023-08-15T18:56:42.682Z,38.80
2023-08-15T18:59:10.367Z,39.32
2023-08-15T19:01:38.030Z,39.71
2023-08-15T19:04:07.023Z,39.26
2023-08-15T19:06:34.670Z,40.29
2023-08-15T19:09:02.242Z,41.39
2023-08-15T19:11:29.889Z,41.14
2023-08-15T19:13:57.516Z,41.42
2023-08-15T19:16:25.616Z,41.51
2023-08-15T19:18:53.261Z,41.78
2023-08-15T19:21:22.400Z,42.32
2023-08-15T19:23:49.981Z,42.74
2023-08-15T19:26:18.158Z,42.80
2023-08-15T19:28:45.744Z,43.25
2023-08-15T19:31:13.486Z,41.39
2023-08-15T19:33:41.100Z,41.57
2023-08-15T19:36:09.126Z,41.96
2023-08-15T19:38:38.050Z,43.11
2023-08-15T19:41:05.741Z,43.35
2023-08-15T19:43:33.562Z,43.46
2023-08-15T19:46:01.379Z,43.48
2023-08-15T19:48:29.052Z,42.87
2023-08-15T19:50:56.622Z,43.23
2023-08-15T19:53:24.475Z,43.27
2023-08-15T19:55:53.654Z,44.09
2023-08-15T19:58:21.239Z,44.26
2023-08-15T20:00:48.875Z,44.16
2023-08-15T20:03:16.784Z,44.20
2023-08-15T20:05:44.394Z,44.27
2023-08-15T20:08:11.989Z,44.58
2023-08-15T20:10:39.594Z,44.58
2023-08-15T20:13:08.634Z,44.46
2023-08-15T20:15:39.454Z,45.16
2023-08-15T20:18:08.480Z,45.42
2023-08-15T20:20:36.183Z,44.83
2023-08-15T20:23:03.808Z,44.79
2023-08-15T20:25:31.425Z,44.93
2023-08-15T20:27:58.982Z,44.58
2023-08-15T20:30:29.935Z,45.08
2023-08-15T20:32:58.135Z,46.41
2023-08-15T20:35:25.811Z,46.69
2023-08-15T20:37:54.009Z,46.53
2023-08-15T20:40:21.651Z,46.77
2023-08-15T20:42:49.215Z,47.16
2023-08-15T20:45:16.824Z,47.18
2023-08-15T20:47:46.577Z,47.07
2023-08-15T20:50:14.303Z,47.24
2023-08-15T20:52:41.910Z,47.21
2023-08-15T20:55:14.417Z,47.69
2023-08-15T20:57:42.063Z,47.84
2023-08-15T21:00:10.728Z,47.94
2023-08-15T21:02:38.380Z,48.18
2023-08-15T21:05:08.847Z,48.69
2023-08-15T21:07:37.018Z,48.12
2023-08-15T21:10:05.211Z,48.04
2023-08-15T21:12:32.862Z,48.42
2023-08-15T21:15:00.459Z,49.00
2023-08-15T21:17:28.132Z,48.69
2023-08-15T21:19:56.051Z,48.75
2023-08-15T21:22:25.094Z,48.97
2023-08-15T21:24:52.642Z,49.18
2023-08-15T21:27:20.435Z,49.70
2023-08-15T21:29:48.543Z,49.73
2023-08-15T21:32:16.196Z,50.14
2023-08-15T21:34:43.838Z,49.85
2023-08-15T21:37:11.798Z,49.56
2023-08-15T21:39:41.599Z,49.98
2023-08-15T21:42:09.241Z,49.33
2023-08-15T21:44:36.824Z,50.40
2023-08-15T21:47:04.643Z,50.48
2023-08-15T21:49:32.195Z,50.43
2023-08-15T21:52:03.049Z,50.21
2023-08-15T21:54:30.661Z,50.37
2023-08-15T21:57:05.224Z,50.34
2023-08-15T21:59:32.895Z,50.91
2023-08-15T22:02:01.245Z,50.99
2023-08-15T22:04:29.362Z,51.02
2023-08-15T22:06:57.065Z,50.99
2023-08-15T22:09:25.931Z,51.29
2023-08-15T22:11:53.597Z,51.46
2023-08-15T22:14:22.727Z,51.28
2023-08-15T22:16:50.809Z,50.84
2023-08-15T22:19:18.510Z,50.69
2023-08-15T22:21:46.147Z,51.39
2023-08-15T22:24:13.795Z,50.68
2023-08-15T22:26:41.369Z,50.30
2023-08-15T22:29:09.716Z,50.19
2023-08-15T22:31:38.787Z,50.70
2023-08-15T22:34:06.452Z,50.40
2023-08-15T22:36:35.409Z,50.29
2023-08-15T22:39:03.039Z,49.99
2023-08-15T22:41:30.682Z,50.09
2023-08-15T22:43:58.318Z,50.29
2023-08-15T22:46:26.416Z,50.58
2023-08-15T22:48:55.500Z,51.46
2023-08-15T22:51:23.215Z,51.57
2023-08-15T22:53:51.976Z,51.74
2023-08-15T22:56:19.600Z,51.61
2023-08-15T22:58:47.196Z,51.64
2023-08-15T23:01:15.149Z,51.85
2023-08-15T23:03:42.768Z,52.17
2023-08-15T23:06:11.862Z,51.85
2023-08-15T23:08:39.536Z,51.93
2023-08-15T23:11:07.264Z,52.22
2023-08-15T23:13:34.878Z,52.16
2023-08-15T23:16:02.592Z,52.24
2023-08-15T23:18:30.175Z,52.20
2023-08-15T23:20:57.881Z,52.57
2023-08-15T23:23:26.831Z,53.00
2023-08-15T23:25:54.396Z,53.43
2023-08-15T23:28:22.032Z,53.52
2023-08-15T23:30:50.537Z,53.44
2023-08-15T23:33:18.116Z,53.63
2023-08-15T23:35:46.332Z,53.98
2023-08-15T23:38:13.927Z,54.16
2023-08-15T23:40:43.100Z,53.99
2023-08-15T23:43:10.826Z,53.95
2023-08-15T23:45:38.534Z,54.20
2023-08-15T23:48:06.633Z,54.55
2023-08-15T23:50:34.333Z,54.31
2023-08-15T23:53:01.896Z,54.24
2023-08-15T23:55:29.529Z,54.58
2023-08-15T23:57:58.449Z,54.71
